Latest Weather Observations for Cape Byron

IDN60801

Issued at 11:33 am EDT Sunday 7 February 2016 (issued every 30 minutes, with the page automatically refreshed every 10 minutes)

About weather observations | Map of weather stations | Latest weather observations for NSW | Other Formats
Station Details ID: 058216 Name: CAPE BYRON AWS Lat: -28.64 Lon: 153.64 Height: 95.0 m
Data from the previous 72 hours. | See also: Recent months at Cape Byron
Date/Time
EDT
Temp
°C
App
Temp
°C
Dew
Point
Rel
Hum
%
Delta-T
°C
Wind Press
QNH
hPa
Press
MSL
hPa
Rain
since 9 am
mm
Dir
 
Spd
km/h
Gust
km/h
Spd
kts
Gust
kts
07/11:30am 20.1 19.3 20.1 100 0.0 SW 24 33 13 18 1015.4 1014.9 3.6
07/11:00am 20.4 19.4 20.4 100 0.0 SW 26 35 14 19 1015.3 1014.8 1.6
07/10:30am 20.1 18.2 20.1 100 0.0 SW 30 39 16 21 1015.3 1014.8 1.6
07/10:00am 19.3 16.6 19.3 100 0.0 SW 32 46 17 25 1015.0 1014.5 0.8
07/09:30am 19.9 18.2 19.9 100 0.0 SW 28 39 15 21 1015.1 1014.6 0.2
07/09:00am 19.9 18.6 19.9 100 0.0 SW 26 35 14 19 1014.9 1014.4 11.0
07/08:30am 20.1 18.5 20.1 100 0.0 SW 28 39 15 21 1014.7 1014.2 10.2
07/08:00am 20.3 19.1 20.1 99 0.1 SW 26 33 14 18 1014.3 1013.8 9.6
07/07:30am 20.2 18.9 19.9 98 0.2 SW 26 35 14 19 1014.5 1014.0 7.6
07/07:00am 20.6 21.1 20.1 97 0.3 SW 17 28 9 15 1014.2 1013.7 7.6
07/06:30am 20.6 19.3 19.9 96 0.4 S 26 33 14 18 1013.7 1013.2 7.6
07/06:00am 20.7 19.3 19.7 94 0.6 SW 26 37 14 20 1013.2 1012.7 7.6
07/05:30am 21.8 19.7 19.7 88 1.3 SSW 30 44 16 24 1013.2 1012.7 7.6
07/05:00am 22.9 21.1 21.2 90 1.1 SSE 32 44 17 24 1012.9 1012.4 7.6
07/04:30am 22.6 22.4 21.2 92 0.9 SSE 24 39 13 21 1012.7 1012.2 7.6
07/04:13am 22.6 20.9 19.8 84 1.8 SSW 28 43 15 23 1012.7 1012.2 7.4
07/04:00am 23.7 20.2 20.4 82 2.2 S 39 44 21 24 1012.6 1012.1 7.4
07/03:30am 23.7 19.8 20.4 82 2.2 S 41 50 22 27 1012.4 1011.9 7.4
07/03:00am 23.5 19.8 20.0 81 2.3 S 39 50 21 27 1012.3 1011.8 7.4
07/02:30am 22.6 20.4 21.4 93 0.8 S 35 46 19 25 1012.2 1011.7 7.4
07/02:18am 21.6 19.3 20.1 91 1.0 SSE 32 46 17 25 1012.4 1011.9 7.4
07/02:15am 21.7 20.2 20.3 92 0.9 SSE 28 46 15 25 1012.5 1012.0 7.4
07/02:00am 21.6 20.0 20.8 95 0.5 SSE 30 43 16 23 1012.9 1012.4 7.4
07/01:46am 22.1 20.1 20.7 92 0.9 SSE 32 50 17 27 1012.9 1012.4 7.2
07/01:30am 22.0 19.0 19.9 88 1.4 SE 35 46 19 25 1013.2 1012.7 6.8
07/01:00am 22.6 20.2 20.3 87 1.5 SE 33 44 18 24 1013.7 1013.2 6.6
07/12:30am 23.1 20.7 21.0 88 1.4 SE 35 44 19 24 1013.9 1013.4 6.6
07/12:00am 22.8 19.6 21.1 90 1.1 ESE 39 48 21 26 1013.6 1013.1 6.0
 
Date/Time
EDT
Temp
°C
App
Temp
°C
Dew
Point
Rel
Hum
%
Delta-T
°C
Wind Press
QNH
hPa
Press
MSL
hPa
Rain
since 9 am
mm
Dir
 
Spd
km/h
Gust
km/h
Spd
kts
Gust
kts
06/11:30pm 23.5 21.4 21.0 86 1.6 SE 33 44 18 24 1014.2 1013.7 5.8
06/11:00pm 23.8 21.7 20.9 84 1.9 SE 33 44 18 24 1014.3 1013.8 5.8
06/10:30pm 23.8 20.2 20.9 84 1.9 SE 41 48 22 26 1013.9 1013.4 5.6
06/10:00pm 23.8 19.8 21.3 86 1.7 SE 44 50 24 27 1013.6 1013.1 5.6
06/09:42pm 23.5 21.6 21.4 88 1.4 SE 33 48 18 26 1013.5 1013.0 5.6
06/09:30pm 23.4 21.7 21.3 88 1.4 SSE 32 50 17 27 1013.7 1013.2 5.6
06/09:27pm 23.2 20.7 20.9 87 1.5 SSE 35 54 19 29 1013.6 1013.1 5.6
06/09:15pm 22.7 19.0 20.8 89 1.2 SSE 41 50 22 27 1013.7 1013.2 5.6
06/09:01pm 23.9 21.6 21.2 85 1.8 SE 35 54 19 29 1013.4 1012.9 5.6
06/09:00pm 23.9 21.1 21.0 84 1.9 SE 37 54 20 29 1013.4 1012.9 5.6
06/08:30pm 23.8 19.9 21.1 85 1.8 SE 43 54 23 29 1012.9 1012.4 5.6
06/08:00pm 23.8 20.6 21.1 85 1.8 SE 39 48 21 26 1012.8 1012.3 5.6
06/07:30pm 23.8 21.6 21.5 87 1.5 SE 35 46 19 25 1012.3 1011.8 5.6
06/07:00pm 23.7 21.0 21.2 86 1.6 SE 37 48 20 26 1011.9 1011.4 5.6
06/06:30pm 22.9 20.7 22.1 95 0.5 SE 37 44 20 24 1011.6 1011.1 5.6
06/06:12pm 23.1 20.4 21.9 93 0.8 SE 39 57 21 31 1011.3 1010.8 5.6
06/06:00pm 22.6 19.5 21.2 92 0.9 SE 39 52 21 28 1011.4 1010.9 5.6
06/05:54pm 22.7 18.8 21.2 91 1.0 SE 43 57 23 31 1011.4 1010.9 5.6
06/05:50pm 23.0 19.3 21.5 91 1.0 SE 43 57 23 31 1011.2 1010.7 5.6
06/05:30pm 22.8 19.3 21.8 94 0.7 ESE 43 57 23 31 1011.2 1010.7 5.6
06/05:27pm 23.1 19.4 21.9 93 0.8 ESE 44 57 24 31 1011.1 1010.6 5.6
06/05:00pm 23.8 21.8 21.9 89 1.3 SE 35 50 19 27 1011.0 1010.5 5.6
06/04:55pm 24.1 21.9 22.2 89 1.3 SE 37 48 20 26 1011.2 1010.7 5.6
06/04:30pm 23.3 20.4 22.3 94 0.7 ESE 41 54 22 29 1011.3 1010.8 5.6
06/04:11pm 23.4 22.2 22.6 95 0.5 SSE 33 52 18 28 1011.2 1010.7 5.6
06/04:08pm 23.4 22.8 22.6 95 0.5 SSE 30 48 16 26 1011.3 1010.8 5.6
06/04:00pm 22.9 21.7 22.2 96 0.5 SSE 32 43 17 23 1011.5 1011.0 5.6
06/03:48pm 23.0 21.3 22.5 97 0.3 SE 35 50 19 27 1011.6 1011.1 5.6
06/03:30pm 22.4 18.8 21.7 96 0.5 ESE 43 65 23 35 1011.3 1010.8 5.4
06/03:27pm 22.9 20.3 22.1 95 0.5 ESE 39 65 21 35 1011.2 1010.7 4.8
06/03:16pm 23.0 20.4 22.2 95 0.5 SE 39 50 21 27 1011.2 1010.7 4.8
06/03:06pm 24.1 22.9 22.2 89 1.3 SE 32 56 17 30 1011.4 1010.9 3.4
06/03:00pm 24.2 23.4 22.3 89 1.3 SE 30 41 16 22 1011.6 1011.1 3.4
06/02:30pm 23.9 22.9 23.0 95 0.6 SE 33 48 18 26 1011.6 1011.1 3.4
06/02:00pm 23.4 22.0 21.1 87 1.5 SSE 30 46 16 25 1011.9 1011.4 1.2
06/01:30pm 23.7 20.2 21.8 89 1.3 SE 43 54 23 29 1012.0 1011.5 1.2
06/01:21pm 24.2 23.7 22.8 92 0.9 SSE 30 52 16 28 1012.2 1011.7 1.2
06/01:00pm 22.9 21.0 22.1 95 0.5 SSE 35 48 19 26 1012.5 1012.0 1.2
06/12:30pm 22.8 22.1 21.8 94 0.7 SSE 28 43 15 23 1012.6 1012.1 1.0
06/12:12pm 23.0 21.2 21.6 92 0.9 SSE 33 52 18 28 1012.7 1012.2 0.4
06/12:00pm 24.8 23.7 22.5 87 1.5 SE 32 46 17 25 1012.6 1012.1 0.4
06/11:30am 23.2 22.0 22.2 94 0.7 S 32 41 17 22 1012.9 1012.4 0.4
06/11:13am 23.2 21.1 21.6 91 1.1 S 35 48 19 26 1012.9 1012.4 0.0
06/11:00am 24.6 24.0 22.7 89 1.3 SSE 30 41 16 22 1013.0 1012.5 0.0
06/10:37am 22.9 22.3 21.9 94 0.7 SSE 28 46 15 25 1013.0 1012.5 0.0
06/10:30am 23.1 20.4 21.9 93 0.8 SE 39 48 21 26 1013.0 1012.5 0.0
06/10:10am 23.2 21.2 21.8 92 0.9 S 35 44 19 24 1012.8 1012.3 0.0
06/10:05am 23.1 20.9 21.4 90 1.1 SSE 35 44 19 24 1012.8 1012.3 0.0
06/10:00am 23.9 22.0 22.0 89 1.3 SE 35 50 19 27 1012.8 1012.3 0.0
06/09:30am 24.3 21.8 22.4 89 1.3 SE 39 48 21 26 1012.7 1012.2 0.0
06/09:00am 23.4 21.1 22.0 92 0.9 SE 37 50 20 27 1012.3 1011.8 10.0
06/08:35am 22.7 20.4 22.0 96 0.5 SSE 37 56 20 30 1012.1 1011.6 9.6
06/08:30am 22.4 20.4 21.9 97 0.3 S 35 44 19 24 1012.2 1011.7 9.6
06/08:00am 23.0 21.8 21.6 92 0.9 SSE 30 44 16 24 1012.2 1011.7 9.0
06/07:32am 23.2 22.0 22.2 94 0.7 SE 32 50 17 27 1011.6 1011.1 9.0
06/07:30am 23.3 22.2 22.5 95 0.5 SSE 32 44 17 24 1011.7 1011.2 9.0
06/07:00am 22.5 20.0 21.7 95 0.5 SSE 37 46 20 25 1011.3 1010.8 9.0
06/06:34am 22.4 21.0 21.9 97 0.3 SSE 32 52 17 28 1011.0 1010.5 9.0
06/06:30am 22.3 21.3 22.0 98 0.2 SSE 30 41 16 22 1011.0 1010.5 8.8
06/06:13am 22.7 20.4 22.0 96 0.5 SSE 37 61 20 33 1010.5 1010.0 8.2
06/06:00am 22.2 19.9 21.2 94 0.7 SSE 35 52 19 28 1010.4 1009.9 8.2
06/05:35am 22.1 20.2 21.3 95 0.5 S 33 56 18 30 1010.4 1009.9 8.0
06/05:30am 22.7 21.3 22.0 96 0.5 S 32 41 17 22 1010.3 1009.8 8.0
06/05:00am 22.5 20.5 21.8 96 0.5 S 35 44 19 24 1010.2 1009.7 8.0
06/04:45am 22.2 18.9 21.5 96 0.5 S 41 48 22 26 1010.1 1009.6 8.0
06/04:30am 23.0 20.7 22.0 94 0.7 SSE 37 48 20 26 1010.1 1009.6 7.8
06/04:02am 22.0 18.2 21.3 96 0.5 SE 43 61 23 33 1010.0 1009.5 7.8
06/04:00am 21.8 17.3 21.0 95 0.5 SE 46 61 25 33 1009.8 1009.3 7.8
06/03:50am 22.6 19.6 21.4 93 0.8 SSE 39 63 21 34 1009.7 1009.2 7.8
06/03:30am 22.5 20.3 21.5 94 0.7 SSE 35 50 19 27 1010.1 1009.6 7.8
06/03:00am 21.7 19.5 21.4 98 0.2 S 35 46 19 25 1010.5 1010.0 7.8
06/02:30am 21.4 17.3 20.7 96 0.5 SSE 43 56 23 30 1010.5 1010.0 7.8
06/02:00am 21.9 19.7 21.4 97 0.3 SSE 35 48 19 26 1010.7 1010.2 7.6
06/01:48am 21.8 18.4 21.3 97 0.3 SSE 41 54 22 29 1011.0 1010.5 7.6
06/01:30am 21.4 17.3 21.1 98 0.2 SE 44 70 24 38 1011.1 1010.6 7.4
06/01:25am 21.7 18.2 21.2 97 0.3 SSE 41 70 22 38 1011.1 1010.6 7.2
06/01:22am 22.1 20.0 21.6 97 0.3 SSE 35 70 19 38 1010.7 1010.2 6.8
06/01:21am 22.3 20.7 21.8 97 0.3 SSE 33 54 18 29 1011.2 1010.7 6.4
06/01:00am 21.7 19.0 21.2 97 0.3 SSE 37 50 20 27 1011.6 1011.1 5.4
06/12:30am 22.4 19.6 21.7 96 0.5 S 39 48 21 26 1012.0 1011.5 3.8
06/12:09am 21.7 17.2 21.0 96 0.5 SSE 46 61 25 33 1012.2 1011.7 3.8
06/12:00am 22.4 17.2 20.5 89 1.2 S 48 63 26 34 1012.0 1011.5 3.6
 
Date/Time
EDT
Temp
°C
App
Temp
°C
Dew
Point
Rel
Hum
%
Delta-T
°C
Wind Press
QNH
hPa
Press
MSL
hPa
Rain
since 9 am
mm
Dir
 
Spd
km/h
Gust
km/h
Spd
kts
Gust
kts
05/11:59pm 22.7 17.3 20.8 89 1.2 S 50 63 27 34 1012.0 1011.5 3.6
05/11:30pm 23.3 19.1 21.7 91 1.1 S 46 59 25 32 1012.2 1011.7 3.6
05/11:00pm 23.9 19.4 21.0 84 1.9 S 46 59 25 32 1012.3 1011.8 3.6
05/10:30pm 24.1 19.7 20.6 81 2.3 S 44 54 24 29 1012.4 1011.9 3.6
05/10:00pm 24.2 20.1 20.7 81 2.3 S 43 57 23 31 1012.4 1011.9 3.6
05/09:30pm 24.1 19.7 21.2 84 1.9 S 46 59 25 32 1012.1 1011.6 3.6
05/09:00pm 23.9 19.1 21.2 85 1.8 S 48 59 26 32 1011.7 1011.2 3.6
05/08:40pm 22.9 20.0 21.5 92 0.9 SSE 39 54 21 29 1011.5 1011.0 3.6
05/08:37pm 22.4 19.1 20.9 91 1.0 SSE 39 54 21 29 1011.4 1010.9 3.6
05/08:30pm 23.9 20.0 21.4 86 1.7 S 44 54 24 29 1011.5 1011.0 3.2
05/08:00pm 24.0 19.2 21.3 85 1.8 S 48 57 26 31 1011.2 1010.7 3.2
05/07:30pm 23.0 18.5 21.8 93 0.8 S 48 65 26 35 1010.9 1010.4 3.2
05/07:07pm 23.5 18.7 20.4 83 2.0 SSE 46 65 25 35 1010.6 1010.1 2.8
05/07:00pm 23.8 18.6 20.5 82 2.2 SSE 48 65 26 35 1010.3 1009.8 2.8
05/06:43pm 23.9 18.6 20.2 80 2.4 S 48 69 26 37 1010.3 1009.8 2.8
05/06:30pm 24.5 20.8 21.8 85 1.8 SSE 44 59 24 32 1010.1 1009.6 2.8
05/06:00pm 24.3 20.1 21.6 85 1.8 S 46 59 25 32 1010.0 1009.5 2.8
05/05:30pm 24.9 19.3 21.8 83 2.1 S 54 63 29 34 1009.9 1009.4 2.8
05/05:00pm 24.2 19.0 21.1 83 2.0 S 50 63 27 34 1009.5 1009.0 2.8
05/04:30pm 22.8 18.1 22.1 96 0.5 SSW 50 61 27 33 1009.6 1009.1 2.8
05/04:00pm 23.7 18.2 21.4 87 1.5 S 52 59 28 32 1009.6 1009.1 2.6
05/03:30pm 23.1 17.9 21.9 93 0.8 S 52 61 28 33 1009.8 1009.3 2.6
05/03:00pm 23.3 19.5 23.0 98 0.2 SSW 48 61 26 33 1009.7 1009.2 2.6
05/02:33pm 23.1 18.5 21.7 92 0.9 SSW 48 72 26 39 1010.1 1009.6 1.4
05/02:30pm 24.3 20.7 22.7 91 1.1 SSW 46 61 25 33 1009.9 1009.4 1.0
05/02:00pm 24.6 21.2 23.2 92 1.0 SSW 46 59 25 32 1010.1 1009.6 1.0
05/01:30pm 24.1 20.9 22.4 90 1.1 SSW 43 61 23 33 1010.2 1009.7 1.0
05/01:00pm 23.9 21.9 23.2 96 0.5 SSW 39 50 21 27 1010.4 1009.9 1.0
05/12:30pm 22.8 20.8 22.5 98 0.2 SSW 37 52 20 28 1010.7 1010.2 1.0
05/12:00pm 22.7 19.3 22.4 98 0.2 SSW 44 56 24 30 1010.4 1009.9 1.0
05/11:30am 22.2 19.3 21.5 96 0.5 SW 39 52 21 28 1010.7 1010.2 0.0
05/11:00am 23.2 20.5 22.0 93 0.8 SSW 39 52 21 28 1010.3 1009.8 0.0
05/10:55am 23.1 20.5 22.1 94 0.7 SSW 39 57 21 31 1010.3 1009.8 0.0
05/10:30am 22.7 19.0 21.9 95 0.5 SSW 44 57 24 31 1010.1 1009.6 0.0
05/10:08am 22.7 20.0 22.0 96 0.5 SW 39 57 21 31 1010.0 1009.5 0.0
05/10:00am 22.6 20.2 21.9 96 0.5 SW 37 50 20 27 1010.2 1009.7 0.0
05/09:30am 22.0 19.7 21.3 96 0.5 SW 35 50 19 27 1010.3 1009.8 0.0
05/09:00am 21.8 20.1 21.3 97 0.3 SW 32 44 17 24 1010.0 1009.5 0.8
05/08:30am 22.0 20.0 21.2 95 0.5 SW 33 46 18 25 1009.6 1009.1 0.6
05/08:00am 21.2 19.2 20.7 97 0.3 SW 32 43 17 23 1009.3 1008.8 0.6
05/07:30am 21.1 18.7 20.4 96 0.5 SW 33 44 18 24 1009.0 1008.5 0.6
05/07:00am 20.9 18.4 20.2 96 0.5 SW 33 46 18 25 1008.6 1008.1 0.6
05/06:30am 20.9 18.6 20.1 95 0.5 SW 32 44 17 24 1008.4 1007.9 0.6
05/06:00am 20.8 18.4 20.0 95 0.5 SW 32 41 17 22 1008.1 1007.6 0.6
05/05:30am 20.7 18.3 19.9 95 0.5 SW 32 46 17 25 1007.8 1007.3 0.6
05/05:00am 20.7 18.3 20.0 96 0.5 SW 32 43 17 23 1007.3 1006.8 0.6
05/04:30am 20.7 18.3 20.4 98 0.2 SW 33 44 18 24 1007.2 1006.7 0.6
05/04:00am 20.7 18.4 20.5 99 0.1 SW 33 43 18 23 1007.4 1006.9 0.6
05/03:30am 20.7 18.0 20.5 99 0.1 SW 35 44 19 24 1007.7 1007.2 0.6
05/03:00am 20.8 18.7 20.6 99 0.1 SW 32 44 17 24 1007.9 1007.4 0.6
05/02:30am 21.0 16.9 20.7 98 0.2 SW 43 54 23 29 1007.8 1007.3 0.6
05/02:00am 21.3 19.2 21.0 98 0.2 SW 33 48 18 26 1008.2 1007.7 0.6
05/01:30am 21.6 19.3 21.3 98 0.2 SW 35 43 19 23 1008.6 1008.1 0.6
05/01:00am 21.6 19.3 21.3 98 0.2 SW 35 43 19 23 1008.7 1008.2 0.6
05/12:30am 21.5 20.5 21.3 99 0.1 SW 28 35 15 19 1009.2 1008.7 0.6
05/12:00am 21.4 20.3 21.1 98 0.2 SW 28 35 15 19 1009.5 1009.0 0.6
 
Date/Time
EDT
Temp
°C
App
Temp
°C
Dew
Point
Rel
Hum
%
Delta-T
°C
Wind Press
QNH
hPa
Press
MSL
hPa
Rain
since 9 am
mm
Dir
 
Spd
km/h
Gust
km/h
Spd
kts
Gust
kts
04/11:30pm 21.4 21.1 21.1 98 0.2 SW 24 33 13 18 1009.8 1009.3 0.6
04/11:00pm 22.0 20.3 21.3 96 0.5 SW 32 50 17 27 1009.7 1009.2 0.4
04/10:51pm 22.4 20.8 21.6 95 0.5 SW 32 50 17 27 1009.7 1009.2 0.0
04/10:30pm 22.3 21.5 21.6 96 0.5 SW 28 39 15 21 1009.8 1009.3 0.0
04/10:00pm 22.2 21.4 21.7 97 0.3 SW 28 37 15 20 1009.9 1009.4 0.0
04/09:30pm 22.3 21.9 21.6 96 0.5 SW 26 39 14 21 1009.6 1009.1 0.0
04/09:00pm 22.1 21.9 21.3 95 0.5 SW 24 32 13 17 1009.3 1008.8 0.0
04/08:30pm 22.2 21.7 21.4 95 0.5 SW 26 32 14 17 1009.0 1008.5 0.0
04/08:00pm 22.2 23.0 21.4 95 0.5 WSW 19 22 10 12 1008.8 1008.3 0.0
04/07:30pm 22.2 23.0 21.4 95 0.5 SW 19 20 10 11 1008.3 1007.8 0.0
04/07:00pm 22.0 22.2 21.3 96 0.5 SSW 22 32 12 17 1008.0 1007.5 0.0
04/06:30pm 21.8 22.3 21.1 96 0.5 SW 20 26 11 14 1007.5 1007.0 0.0
04/06:00pm 22.0 21.2 20.8 93 0.8 SW 26 37 14 20 1007.5 1007.0 0.0
04/05:30pm 23.3 24.7 21.0 87 1.5 SSW 15 20 8 11 1007.3 1006.8 0.0
04/05:00pm 23.9 25.9 20.8 83 2.0 S 11 15 6 8 1007.2 1006.7 0.0
04/04:30pm 24.1 25.1 20.2 79 2.5 SE 15 19 8 10 1007.1 1006.6 0.0
04/04:00pm 24.6 24.7 20.3 77 2.8 ESE 20 26 11 14 1007.3 1006.8 0.0
04/03:30pm 24.0 22.8 20.1 79 2.5 ESE 26 32 14 17 1007.4 1006.9 0.0
04/03:00pm 22.5 21.7 20.0 86 1.6 SE 24 32 13 17 1008.0 1007.5 0.0
04/02:30pm 23.9 21.2 17.6 68 3.9 SSE 28 39 15 21 1008.5 1008.0 0.0
04/02:00pm 24.7 22.3 19.1 71 3.6 SSE 30 41 16 22 1008.3 1007.8 0.0
04/01:30pm 24.7 21.8 20.8 79 2.6 S 37 44 20 24 1008.4 1007.9 0.0
04/01:00pm 25.1 21.5 20.1 74 3.3 S 39 48 21 26 1008.2 1007.7 0.0
04/12:30pm 25.2 22.9 20.2 74 3.3 SSE 32 48 17 26 1008.1 1007.6 0.0
04/12:29pm 25.6 23.9 20.6 74 3.3 SSE 30 48 16 26 1008.2 1007.7 0.0
04/12:00pm 26.2 26.0 22.1 78 2.8 SE 26 35 14 19 1008.0 1007.5 0.0

Other Formats:

Comma delimited format used in spreadsheet applications
http://www.bom.gov.au/fwo/IDN60801/IDN60801.94599.axf

JavaScript Object Notation format (JSON) in row-major order
http://www.bom.gov.au/fwo/IDN60801/IDN60801.94599.json